createdAt,value
2016-05-05T00:00:21.883Z,0
2016-05-05T00:01:21.995Z,0
2016-05-05T00:02:21.810Z,0
2016-05-05T00:03:21.484Z,0
2016-05-05T00:04:21.612Z,0
2016-05-05T00:05:21.614Z,0
2016-05-05T00:06:21.633Z,0
2016-05-05T00:07:21.448Z,0
2016-05-05T00:08:21.669Z,0
2016-05-05T00:09:22.736Z,0
2016-05-05T00:10:21.675Z,0
2016-05-05T00:11:21.663Z,0
2016-05-05T00:12:21.633Z,0
2016-05-05T00:13:21.152Z,0
2016-05-05T00:14:21.499Z,0
2016-05-05T00:15:21.688Z,0
2016-05-05T00:16:21.629Z,0
2016-05-05T00:17:49.787Z,0
2016-05-05T00:18:21.650Z,0
2016-05-05T00:19:21.902Z,0
2016-05-05T00:20:35.640Z,0
2016-05-05T00:21:21.861Z,0
2016-05-05T00:22:21.692Z,0
2016-05-05T00:23:35.554Z,0
2016-05-05T00:24:21.385Z,0
2016-05-05T00:25:21.856Z,0
2016-05-05T00:26:21.796Z,0
2016-05-05T00:27:35.752Z,0
2016-05-05T00:28:21.911Z,0
2016-05-05T00:29:21.929Z,0
2016-05-05T00:31:22.076Z,0
2016-05-05T00:32:21.875Z,0
2016-05-05T00:33:21.689Z,0
2016-05-05T00:34:21.771Z,0
2016-05-05T00:35:21.555Z,0
2016-05-05T00:36:22.120Z,0
2016-05-05T00:37:21.686Z,0
2016-05-05T00:38:21.953Z,0
2016-05-05T00:39:22.566Z,0
2016-05-05T00:40:35.771Z,0
2016-05-05T00:41:21.899Z,0
2016-05-05T00:42:21.699Z,0
2016-05-05T00:43:21.920Z,0
2016-05-05T00:44:22.141Z,0
2016-05-05T00:45:21.738Z,0
2016-05-05T00:47:21.916Z,0
2016-05-05T00:48:21.699Z,0
2016-05-05T00:49:21.733Z,0
2016-05-05T00:50:21.985Z,0
2016-05-05T00:51:21.755Z,0
2016-05-05T00:52:35.648Z,0
2016-05-05T00:53:21.229Z,0
2016-05-05T00:54:21.809Z,0
2016-05-05T00:55:21.718Z,0
2016-05-05T00:56:21.721Z,0
2016-05-05T00:57:21.490Z,0
2016-05-05T00:58:35.805Z,0
2016-05-05T00:59:35.917Z,0
2016-05-05T01:00:21.575Z,0
2016-05-05T01:01:21.750Z,0
2016-05-05T01:02:22.206Z,0
2016-05-05T01:03:21.973Z,0
2016-05-05T01:04:21.617Z,0
2016-05-05T01:05:21.964Z,0
2016-05-05T01:06:21.748Z,0
2016-05-05T01:07:21.734Z,0
2016-05-05T01:08:21.737Z,0
2016-05-05T01:09:21.458Z,0
2016-05-05T01:10:21.774Z,0
2016-05-05T01:11:21.620Z,0
2016-05-05T01:12:21.607Z,0
2016-05-05T01:13:21.766Z,0
2016-05-05T01:14:21.425Z,0
2016-05-05T01:16:35.838Z,0
2016-05-05T01:17:21.777Z,0
2016-05-05T01:18:35.905Z,0
2016-05-05T01:19:21.985Z,0
2016-05-05T01:20:21.801Z,0
2016-05-05T01:21:21.788Z,0
2016-05-05T01:22:35.838Z,0
2016-05-05T01:23:21.777Z,0
2016-05-05T01:24:22.249Z,0
2016-05-05T01:25:21.783Z,0
2016-05-05T01:26:21.786Z,0
2016-05-05T01:27:21.538Z,0
2016-05-05T01:28:22.213Z,0
2016-05-05T01:29:21.793Z,0
2016-05-05T01:30:21.828Z,0
2016-05-05T01:31:21.659Z,0
2016-05-05T01:32:21.787Z,0
2016-05-05T01:33:22.054Z,0
2016-05-05T01:34:21.823Z,0
2016-05-05T01:35:21.623Z,0
2016-05-05T01:36:21.813Z,0
2016-05-05T01:37:21.987Z,0
2016-05-05T01:38:21.303Z,0
2016-05-05T01:39:22.492Z,0
2016-05-05T01:40:22.120Z,0
2016-05-05T01:41:21.873Z,0
2016-05-05T01:42:21.298Z,0
2016-05-05T01:43:21.816Z,0
2016-05-05T01:44:21.834Z,0
2016-05-05T01:46:36.308Z,0
2016-05-05T01:47:21.670Z,0
2016-05-05T01:48:21.985Z,0
2016-05-05T01:49:22.238Z,0
2016-05-05T01:51:22.041Z,0
2016-05-05T01:52:21.814Z,0
2016-05-05T01:53:35.796Z,0
2016-05-05T01:54:22.311Z,0
2016-05-05T01:55:21.450Z,0
2016-05-05T01:56:36.495Z,0
2016-05-05T01:57:22.074Z,0
2016-05-05T01:58:21.904Z,0
2016-05-05T01:59:21.985Z,0
2016-05-05T02:00:22.128Z,0
2016-05-05T02:01:22.084Z,0
2016-05-05T02:02:22.316Z,0
2016-05-05T02:03:22.106Z,0
2016-05-05T02:05:22.108Z,0
2016-05-05T02:07:22.169Z,0
2016-05-05T02:08:22.345Z,0
2016-05-05T02:09:23.663Z,0
2016-05-05T02:10:22.636Z,0
2016-05-05T02:11:21.937Z,0
2016-05-05T02:12:22.395Z,0
2016-05-05T02:13:22.367Z,0
2016-05-05T02:14:36.448Z,0
2016-05-05T02:15:22.140Z,0
2016-05-05T02:16:22.189Z,0
2016-05-05T02:17:22.349Z,0
2016-05-05T02:18:22.337Z,0
2016-05-05T02:19:22.183Z,0
2016-05-05T02:20:22.139Z,0
2016-05-05T02:21:22.142Z,0
2016-05-05T02:22:22.146Z,0
2016-05-05T02:23:22.791Z,0
2016-05-05T02:24:22.152Z,0
2016-05-05T02:25:22.140Z,0
2016-05-05T02:26:22.564Z,0
2016-05-05T02:27:22.364Z,0
2016-05-05T02:28:22.179Z,0
2016-05-05T02:29:22.213Z,0
2016-05-05T02:30:22.607Z,0
2016-05-05T02:31:22.375Z,0
2016-05-05T02:32:22.159Z,0
2016-05-05T02:33:22.145Z,0
2016-05-05T02:34:22.148Z,0
2016-05-05T02:35:22.151Z,0
2016-05-05T02:36:22.184Z,0
2016-05-05T02:37:22.141Z,0
2016-05-05T02:38:22.550Z,0
2016-05-05T02:39:22.412Z,0
2016-05-05T02:40:22.384Z,0
2016-05-05T02:41:21.995Z,0
2016-05-05T02:42:22.389Z,0
2016-05-05T02:43:22.000Z,0
2016-05-05T02:44:22.411Z,0
2016-05-05T02:45:22.350Z,0
2016-05-05T02:46:21.993Z,0
2016-05-05T02:47:22.371Z,0
2016-05-05T02:48:22.327Z,0
2016-05-05T02:49:22.157Z,0
2016-05-05T02:50:22.161Z,0
2016-05-05T02:51:22.788Z,0
2016-05-05T02:52:22.166Z,0
2016-05-05T02:53:22.371Z,4
2016-05-05T02:54:22.265Z,4
2016-05-05T02:55:22.346Z,0
2016-05-05T02:56:22.568Z,0
2016-05-05T02:57:22.366Z,4
2016-05-05T02:58:36.448Z,4
2016-05-05T02:59:22.013Z,4
2016-05-05T03:00:22.407Z,4
2016-05-05T03:01:22.190Z,8
2016-05-05T03:02:22.162Z,8
2016-05-05T03:03:22.195Z,8
2016-05-05T03:04:22.167Z,8
2016-05-05T03:05:22.201Z,8
2016-05-05T03:06:22.140Z,12
2016-05-05T03:07:22.143Z,12
2016-05-05T03:08:22.381Z,16
2016-05-05T03:09:22.087Z,20
2016-05-05T03:10:36.448Z,24
2016-05-05T03:12:35.906Z,28
2016-05-05T03:13:21.988Z,36
2016-05-05T03:14:21.991Z,36
2016-05-05T03:15:21.993Z,40
2016-05-05T03:16:22.183Z,48
2016-05-05T03:18:22.173Z,64
2016-05-05T03:19:22.223Z,68
2016-05-05T03:20:22.163Z,80
2016-05-05T03:21:22.587Z,84
2016-05-05T03:22:21.996Z,96
2016-05-05T03:23:22.358Z,104
2016-05-05T03:24:24.111Z,120
2016-05-05T03:25:22.177Z,132
2016-05-05T03:26:22.991Z,144
2016-05-05T03:27:22.729Z,160
2016-05-05T03:28:22.153Z,176
2016-05-05T03:29:22.375Z,196
2016-05-05T03:30:22.174Z,216
2016-05-05T03:31:22.567Z,232
2016-05-05T03:32:36.632Z,256
2016-05-05T03:33:36.620Z,276
2016-05-05T03:34:22.154Z,292
2016-05-05T03:35:21.969Z,312
2016-05-05T03:36:22.362Z,332
2016-05-05T03:37:22.178Z,364
2016-05-05T03:38:22.384Z,388
2016-05-05T03:39:22.870Z,420
2016-05-05T03:40:36.467Z,456
2016-05-05T03:41:22.156Z,476
2016-05-05T03:42:22.347Z,504
2016-05-05T03:43:22.131Z,536
2016-05-05T03:44:22.134Z,560
2016-05-05T03:45:22.542Z,596
2016-05-05T03:47:22.580Z,660
2016-05-05T03:48:22.145Z,688
2016-05-05T03:49:22.350Z,712
2016-05-05T03:50:22.133Z,740
2016-05-05T03:51:21.683Z,768
2016-05-05T03:52:22.202Z,788
2016-05-05T03:53:22.626Z,812
2016-05-05T03:54:22.144Z,836
2016-05-05T03:55:22.163Z,864
2016-05-05T03:56:22.338Z,888
2016-05-05T03:57:22.169Z,908
2016-05-05T03:58:22.359Z,928
2016-05-05T03:59:22.174Z,952
2016-05-05T04:00:21.848Z,976
2016-05-05T04:01:21.976Z,996
2016-05-05T04:02:22.120Z,1020
2016-05-05T04:03:22.372Z,1052
2016-05-05T04:04:22.140Z,1092
2016-05-05T04:05:22.315Z,1148
2016-05-05T04:06:21.662Z,1208
2016-05-05T04:07:22.337Z,1288
2016-05-05T04:08:22.151Z,1388
2016-05-05T04:09:23.764Z,1504
2016-05-05T04:10:22.125Z,1616
2016-05-05T04:11:22.331Z,1724
2016-05-05T04:12:22.147Z,1848
2016-05-05T04:13:21.978Z,1972
2016-05-05T04:15:21.826Z,2204
2016-05-05T04:16:22.064Z,2276
2016-05-05T04:17:22.176Z,2340
2016-05-05T04:18:22.116Z,2400
2016-05-05T04:19:22.134Z,2440
2016-05-05T04:20:22.121Z,2472
2016-05-05T04:21:21.952Z,2472
2016-05-05T04:22:22.142Z,2464
2016-05-05T04:23:22.394Z,2440
2016-05-05T04:24:22.335Z,2416
2016-05-05T04:25:22.510Z,2424
2016-05-05T04:26:22.216Z,2460
2016-05-05T04:27:22.125Z,2524
2016-05-05T04:28:22.236Z,2612
2016-05-05T04:29:21.989Z,2700
2016-05-05T04:30:22.163Z,2792
2016-05-05T04:31:21.854Z,2880
2016-05-05T04:32:22.310Z,2976
2016-05-05T04:33:22.124Z,3068
2016-05-05T04:34:22.002Z,3144
2016-05-05T04:35:21.989Z,3200
2016-05-05T04:36:22.555Z,3252
2016-05-05T04:37:22.120Z,3316
2016-05-05T04:38:21.935Z,3368
2016-05-05T04:39:22.532Z,3404
2016-05-05T04:40:22.112Z,3424
2016-05-05T04:41:36.037Z,3472
2016-05-05T04:42:21.946Z,3508
2016-05-05T04:43:22.558Z,3572
2016-05-05T04:44:22.201Z,3612
2016-05-05T04:45:22.392Z,3620
2016-05-05T04:46:22.114Z,3608
2016-05-05T04:47:21.944Z,3608
2016-05-05T04:48:22.118Z,3628
2016-05-05T04:49:22.106Z,3644
2016-05-05T04:50:22.139Z,3648
2016-05-05T04:51:22.095Z,3628
2016-05-05T04:52:21.675Z,3620
2016-05-05T04:53:22.336Z,3636
2016-05-05T04:54:21.510Z,3664
2016-05-05T04:55:22.340Z,3688
2016-05-05T04:56:21.969Z,3712
2016-05-05T04:57:22.330Z,3736
2016-05-05T04:58:22.160Z,3740
2016-05-05T04:59:22.133Z,3744
2016-05-05T05:00:22.010Z,3740
2016-05-05T05:01:22.138Z,3728
2016-05-05T05:02:22.110Z,3724
2016-05-05T05:03:21.971Z,3728
2016-05-05T05:04:22.145Z,3724
2016-05-05T05:05:21.960Z,3732
2016-05-05T05:06:22.152Z,3760
2016-05-05T05:07:21.904Z,3808
2016-05-05T05:08:22.251Z,3876
2016-05-05T05:09:22.190Z,3948
2016-05-05T05:10:21.974Z,4028
2016-05-05T05:11:22.117Z,4108
2016-05-05T05:12:22.340Z,4180
2016-05-05T05:13:22.154Z,4260
2016-05-05T05:14:22.142Z,4336
2016-05-05T05:15:22.145Z,4416
2016-05-05T05:16:22.350Z,4488
2016-05-05T05:17:22.164Z,4548
2016-05-05T05:18:22.167Z,4620
2016-05-05T05:19:36.217Z,4720
2016-05-05T05:20:22.173Z,4772
2016-05-05T05:21:22.161Z,4856
2016-05-05T05:22:22.163Z,4924
2016-05-05T05:23:22.556Z,4992
2016-05-05T05:24:22.841Z,5068
2016-05-05T05:25:21.983Z,5168
2016-05-05T05:26:22.346Z,5272
2016-05-05T05:27:22.363Z,5392
2016-05-05T05:28:22.366Z,5524
2016-05-05T05:29:21.682Z,5648
2016-05-05T05:30:22.013Z,5760
2016-05-05T05:31:22.280Z,5848
2016-05-05T05:32:21.690Z,5936
2016-05-05T05:33:22.021Z,6044
2016-05-05T05:34:22.163Z,6164
2016-05-05T05:35:21.995Z,6308
2016-05-05T05:36:22.169Z,6476
2016-05-05T05:37:22.171Z,6592
2016-05-05T05:38:22.237Z,6684
2016-05-05T05:39:21.615Z,6752
2016-05-05T05:40:22.368Z,6816
2016-05-05T05:41:22.182Z,6864
2016-05-05T05:42:22.217Z,6876
2016-05-05T05:43:22.047Z,6872
2016-05-05T05:44:22.065Z,6868
2016-05-05T05:45:22.209Z,6860
2016-05-05T05:46:22.040Z,6844
2016-05-05T05:47:21.917Z,6840
2016-05-05T05:48:22.201Z,6848
2016-05-05T05:49:36.267Z,6852
2016-05-05T05:50:22.253Z,6840
2016-05-05T05:51:21.897Z,6836
2016-05-05T05:52:21.744Z,6820
2016-05-05T05:53:21.730Z,6784
2016-05-05T05:54:22.686Z,6764
2016-05-05T05:55:22.236Z,6748
2016-05-05T05:56:22.207Z,6748
2016-05-05T05:57:22.100Z,6764
2016-05-05T05:58:22.213Z,6796
2016-05-05T05:59:22.231Z,6856
2016-05-05T06:00:22.202Z,6924
2016-05-05T06:01:22.221Z,6984
2016-05-05T06:02:22.207Z,7020
2016-05-05T06:03:21.757Z,7016
2016-05-05T06:04:22.276Z,7000
2016-05-05T06:05:22.263Z,7004
2016-05-05T06:06:22.219Z,7024
2016-05-05T06:07:22.237Z,7064
2016-05-05T06:09:22.820Z,7140
2016-05-05T06:10:22.496Z,7168
2016-05-05T06:11:22.092Z,7204
2016-05-05T06:12:22.265Z,7244
2016-05-05T06:13:36.347Z,7328
2016-05-05T06:14:21.959Z,7380
2016-05-05T06:15:22.305Z,7448
2016-05-05T06:16:22.245Z,7548
2016-05-05T06:17:22.295Z,7748
2016-05-05T06:18:22.516Z,8044
2016-05-05T06:19:22.269Z,8372
2016-05-05T06:20:22.131Z,8668
2016-05-05T06:21:22.275Z,8964
2016-05-05T06:22:22.277Z,9224
2016-05-05T06:23:22.102Z,9508
2016-05-05T06:24:22.464Z,9772
2016-05-05T06:25:22.279Z,9984
2016-05-05T06:26:22.470Z,10208
2016-05-05T06:27:22.113Z,10420
2016-05-05T06:28:22.349Z,10612
2016-05-05T06:29:22.134Z,10804
2016-05-05T06:30:22.309Z,10900
2016-05-05T06:31:22.358Z,10944
2016-05-05T06:32:22.346Z,10948
2016-05-05T06:33:21.848Z,10892
2016-05-05T06:34:22.726Z,10812
2016-05-05T06:35:22.572Z,10708
2016-05-05T06:36:22.293Z,10616
2016-05-05T06:37:22.312Z,10552
2016-05-05T06:38:22.314Z,10524
2016-05-05T06:39:22.895Z,10536
2016-05-05T06:40:22.320Z,10560
2016-05-05T06:41:22.322Z,10588
2016-05-05T06:42:22.435Z,10588
2016-05-05T06:43:22.359Z,10596
2016-05-05T06:44:22.534Z,10620
2016-05-05T06:45:22.333Z,10628
2016-05-05T06:46:22.227Z,10620
2016-05-05T06:47:22.355Z,10616
2016-05-05T06:48:22.216Z,10580
2016-05-05T06:49:22.360Z,10544
2016-05-05T06:50:22.363Z,10536
2016-05-05T06:51:22.193Z,10588
2016-05-05T06:52:22.399Z,10696
2016-05-05T06:53:22.371Z,10860
2016-05-05T06:54:22.061Z,11044
2016-05-05T06:55:22.376Z,11228
2016-05-05T06:56:22.207Z,11400
2016-05-05T06:57:22.413Z,11496
2016-05-05T06:58:22.399Z,11524
2016-05-05T06:59:22.605Z,11540
2016-05-05T07:00:22.373Z,11556
2016-05-05T07:01:22.424Z,11572
2016-05-05T07:02:22.426Z,11616
2016-05-05T07:03:22.398Z,11696
2016-05-05T07:04:22.416Z,11704
2016-05-05T07:05:22.466Z,11604
2016-05-05T07:06:22.406Z,11416
2016-05-05T07:07:22.268Z,11236
2016-05-05T07:08:22.270Z,11024
2016-05-05T07:09:22.945Z,10888
2016-05-05T07:10:22.432Z,10784
2016-05-05T07:11:21.950Z,10684
2016-05-05T07:12:22.640Z,10604
2016-05-05T07:13:22.440Z,10488
2016-05-05T07:14:22.334Z,10412
2016-05-05T07:15:22.320Z,10436
2016-05-05T07:16:22.463Z,10536
2016-05-05T07:17:22.467Z,10688
2016-05-05T07:18:22.344Z,10904
2016-05-05T07:19:22.550Z,11264
2016-05-05T07:20:22.489Z,11660
2016-05-05T07:21:22.867Z,12164
2016-05-05T07:22:22.480Z,12820
2016-05-05T07:23:36.576Z,13820
2016-05-05T07:24:22.391Z,14432
2016-05-05T07:25:22.503Z,15244
2016-05-05T07:26:22.194Z,15948
2016-05-05T07:27:22.180Z,16864
2016-05-05T07:28:22.558Z,17568
2016-05-05T07:29:22.827Z,18304
2016-05-05T07:31:22.535Z,19648
2016-05-05T07:32:22.554Z,20288
2016-05-05T07:33:22.385Z,20960
2016-05-05T07:34:22.402Z,21536
2016-05-05T07:35:22.515Z,22016
2016-05-05T07:36:22.080Z,22048
2016-05-05T07:37:22.535Z,21984
2016-05-05T07:38:22.413Z,21792
2016-05-05T07:39:22.900Z,21472
2016-05-05T07:40:22.404Z,20864
2016-05-05T07:41:22.546Z,20288
2016-05-05T07:42:22.814Z,20192
2016-05-05T07:43:22.443Z,19808
2016-05-05T07:44:22.601Z,19840
2016-05-05T07:45:22.636Z,19712
2016-05-05T07:46:22.591Z,19424
2016-05-05T07:47:22.812Z,18880
2016-05-05T07:48:22.628Z,18336
2016-05-05T07:49:22.599Z,17792
2016-05-05T07:50:22.603Z,17024
2016-05-05T07:51:22.511Z,16648
2016-05-05T07:52:22.483Z,17920
2016-05-05T07:53:22.657Z,17856
2016-05-05T07:54:22.550Z,18464
2016-05-05T07:55:22.505Z,19072
2016-05-05T07:56:22.649Z,19776
2016-05-05T07:57:22.543Z,19520
2016-05-05T07:58:22.671Z,19072
2016-05-05T07:59:22.674Z,18656
2016-05-05T08:00:22.691Z,18560
2016-05-05T08:01:22.710Z,18880
2016-05-05T08:02:22.556Z,19232
2016-05-05T08:03:22.699Z,19424
2016-05-05T08:04:22.718Z,19328
2016-05-05T08:05:22.565Z,18944
2016-05-05T08:06:22.724Z,18656
2016-05-05T08:07:22.741Z,18112
2016-05-05T08:08:22.650Z,17920
2016-05-05T08:09:23.388Z,18176
2016-05-05T08:10:22.609Z,18848
2016-05-05T08:11:37.034Z,19328
2016-05-05T08:12:22.129Z,19712
2016-05-05T08:13:22.773Z,20128
2016-05-05T08:14:22.635Z,20352
2016-05-05T08:15:22.623Z,20320
2016-05-05T08:16:22.484Z,20384
2016-05-05T08:17:22.799Z,20512
2016-05-05T08:18:23.006Z,20928
2016-05-05T08:19:22.664Z,21600
2016-05-05T08:20:22.823Z,21984
2016-05-05T08:21:22.826Z,22112
2016-05-05T08:22:36.907Z,21792
2016-05-05T08:23:22.831Z,21856
2016-05-05T08:24:22.569Z,22176
2016-05-05T08:25:36.789Z,22944
2016-05-05T08:26:22.683Z,23552
2016-05-05T08:27:22.889Z,24480
2016-05-05T08:28:51.033Z,25408
2016-05-05T08:29:22.879Z,25280
2016-05-05T08:30:37.178Z,25344
2016-05-05T08:31:22.791Z,25536
2016-05-05T08:32:22.933Z,25408
2016-05-05T08:33:23.030Z,25728
2016-05-05T08:34:22.924Z,26464
2016-05-05T08:35:22.910Z,26464
2016-05-05T08:36:23.148Z,26176
2016-05-05T08:37:22.947Z,26176
2016-05-05T08:38:22.965Z,26592
2016-05-05T08:39:22.859Z,27072
2016-05-05T08:40:23.001Z,26912
2016-05-05T08:41:22.832Z,26272
2016-05-05T08:42:22.539Z,25344
2016-05-05T08:43:23.073Z,24736
2016-05-05T08:44:23.012Z,24448
2016-05-05T08:45:23.079Z,24736
2016-05-05T08:46:23.065Z,25312
2016-05-05T08:48:23.039Z,26528
2016-05-05T08:49:23.042Z,27136
2016-05-05T08:50:23.061Z,27520
2016-05-05T08:51:23.063Z,28032
2016-05-05T08:52:23.128Z,29088
2016-05-05T08:53:22.772Z,29216
2016-05-05T08:54:23.102Z,28672
2016-05-05T08:55:23.105Z,27936
2016-05-05T08:56:23.108Z,27264
2016-05-05T08:57:37.189Z,26944
2016-05-05T08:58:23.128Z,26752
2016-05-05T08:59:23.130Z,26432
2016-05-05T09:00:23.134Z,25664
2016-05-05T09:01:23.169Z,24320
2016-05-05T09:02:22.998Z,23168
2016-05-05T09:03:23.205Z,22528
2016-05-05T09:04:23.191Z,22048
2016-05-05T09:05:24.007Z,21760
2016-05-05T09:06:23.056Z,21824
2016-05-05T09:07:37.324Z,22464
2016-05-05T09:08:23.265Z,22976
2016-05-05T09:09:24.065Z,23488
2016-05-05T09:10:23.442Z,23904
2016-05-05T09:11:23.117Z,24320
2016-05-05T09:12:23.495Z,24704
2016-05-05T09:13:23.123Z,24992
2016-05-05T09:14:22.812Z,25184
2016-05-05T09:15:23.753Z,25248
2016-05-05T09:16:23.318Z,25312
2016-05-05T09:17:23.305Z,25728
2016-05-05T09:18:37.619Z,26368
2016-05-05T09:19:23.514Z,26944
2016-05-05T09:20:23.062Z,27840
2016-05-05T09:21:23.347Z,27584
2016-05-05T09:22:23.537Z,26592
2016-05-05T09:23:23.211Z,25696
2016-05-05T09:24:24.386Z,25184
2016-05-05T09:25:23.372Z,25344
2016-05-05T09:26:23.392Z,25024
2016-05-05T09:27:23.269Z,23584
2016-05-05T09:28:23.428Z,22176
2016-05-05T09:29:23.853Z,21280
2016-05-05T09:30:23.451Z,20896
2016-05-05T09:31:23.442Z,20256
2016-05-05T09:32:23.635Z,20480
2016-05-05T09:33:23.278Z,21248
2016-05-05T09:34:23.452Z,22016
2016-05-05T09:35:37.392Z,23360
2016-05-05T09:36:23.895Z,24352
2016-05-05T09:37:23.319Z,24928
2016-05-05T09:38:23.478Z,25536
2016-05-05T09:39:23.778Z,25248
2016-05-05T09:40:23.343Z,25504
2016-05-05T09:41:23.783Z,25600
2016-05-05T09:42:23.577Z,25504
2016-05-05T09:43:23.518Z,25760
2016-05-05T09:44:23.536Z,26112
2016-05-05T09:45:23.553Z,26656
2016-05-05T09:46:23.838Z,27424
2016-05-05T09:47:23.590Z,26688
2016-05-05T09:48:26.531Z,26464
2016-05-05T09:49:23.628Z,26464
2016-05-05T09:50:24.239Z,25344
2016-05-05T09:51:23.805Z,24864
2016-05-05T09:52:23.636Z,24704
2016-05-05T09:53:23.481Z,23872
2016-05-05T09:54:24.859Z,22176
2016-05-05T09:55:23.503Z,20384
2016-05-05T09:56:23.646Z,19072
2016-05-05T09:57:37.758Z,18528
2016-05-05T09:58:23.667Z,17856
2016-05-05T09:59:38.169Z,17728
2016-05-05T10:00:23.735Z,16816
2016-05-05T10:01:23.410Z,15648
2016-05-05T10:02:23.584Z,14864
2016-05-05T10:03:23.743Z,14448
2016-05-05T10:04:23.776Z,13932
2016-05-05T10:05:23.935Z,15072
2016-05-05T10:06:23.766Z,15856
2016-05-05T10:07:23.754Z,16492
2016-05-05T10:08:23.959Z,16564
2016-05-05T10:09:24.993Z,15900
2016-05-05T10:10:23.777Z,14684
2016-05-05T10:11:23.686Z,14124
2016-05-05T10:12:23.799Z,14520
2016-05-05T10:13:24.035Z,14752
2016-05-05T10:14:23.850Z,15156
2016-05-05T10:15:23.885Z,15376
2016-05-05T10:16:23.856Z,15784
2016-05-05T10:17:23.842Z,15332
2016-05-05T10:19:23.817Z,14148
2016-05-05T10:20:23.428Z,13452
2016-05-05T10:21:23.948Z,12788
2016-05-05T10:22:23.872Z,12168
2016-05-05T10:23:23.922Z,11720
2016-05-05T10:24:23.924Z,11316
2016-05-05T10:25:24.130Z,11076
2016-05-05T10:26:23.930Z,10960
2016-05-05T10:27:23.761Z,10824
2016-05-05T10:28:24.450Z,10680
2016-05-05T10:29:23.657Z,10212
2016-05-05T10:30:23.971Z,9876
2016-05-05T10:31:24.099Z,9724
2016-05-05T10:32:23.837Z,9596
2016-05-05T10:33:23.824Z,9500
2016-05-05T10:34:23.999Z,9444
2016-05-05T10:35:24.251Z,9404
2016-05-05T10:36:24.035Z,9360
2016-05-05T10:37:23.710Z,9324
2016-05-05T10:38:24.056Z,9288
2016-05-05T10:39:25.199Z,9276
2016-05-05T10:40:24.061Z,9260
2016-05-05T10:41:24.064Z,9240
2016-05-05T10:42:24.067Z,9208
2016-05-05T10:43:24.085Z,9200
2016-05-05T10:44:24.072Z,9168
2016-05-05T10:45:38.371Z,9164
2016-05-05T10:46:23.937Z,9168
2016-05-05T10:47:37.893Z,9156
2016-05-05T10:48:23.958Z,9172
2016-05-05T10:49:24.336Z,9176
2016-05-05T10:50:24.134Z,9180
2016-05-05T10:51:24.044Z,9184
2016-05-05T10:52:24.140Z,9148
2016-05-05T10:53:24.174Z,9096
2016-05-05T10:54:38.708Z,9052
2016-05-05T10:55:24.352Z,9044
2016-05-05T10:56:24.714Z,9000
2016-05-05T10:57:24.200Z,8924
2016-05-05T10:58:24.235Z,8836
2016-05-05T10:59:24.172Z,8780
2016-05-05T11:00:24.374Z,8740
2016-05-05T11:01:24.593Z,8752
2016-05-05T11:02:24.498Z,8760
2016-05-05T11:03:25.306Z,8764
2016-05-05T11:04:38.793Z,8692
2016-05-05T11:05:24.936Z,8684
2016-05-05T11:06:25.034Z,8724
2016-05-05T11:07:24.630Z,8748
2016-05-05T11:08:38.673Z,8768
2016-05-05T11:09:26.009Z,8792
2016-05-05T11:10:24.501Z,8816
2016-05-05T11:11:24.697Z,8816
2016-05-05T11:12:24.658Z,8828
2016-05-05T11:13:24.694Z,8860
2016-05-05T11:14:24.559Z,8872
2016-05-05T11:15:24.527Z,8880
2016-05-05T11:16:24.927Z,8860
2016-05-05T11:17:24.728Z,8828
2016-05-05T11:18:24.717Z,8788
2016-05-05T11:19:24.736Z,8756
2016-05-05T11:20:24.470Z,8732
2016-05-05T11:21:24.801Z,8704
2016-05-05T11:22:24.587Z,8692
2016-05-05T11:23:24.493Z,8672
2016-05-05T11:24:24.762Z,8660
2016-05-05T11:25:24.780Z,8636
2016-05-05T11:26:24.768Z,8612
2016-05-05T11:27:24.333Z,8604
2016-05-05T11:28:24.821Z,8600
2016-05-05T11:29:24.667Z,8604
2016-05-05T11:30:24.827Z,8608
2016-05-05T11:31:24.860Z,8600
2016-05-05T11:32:24.864Z,8608
2016-05-05T11:33:24.867Z,8628
2016-05-05T11:34:25.072Z,8668
2016-05-05T11:35:24.730Z,8676
2016-05-05T11:36:38.971Z,8668
2016-05-05T11:37:24.908Z,8616
2016-05-05T11:38:24.894Z,8600
2016-05-05T11:39:25.226Z,8604
2016-05-05T11:40:24.276Z,8648
2016-05-05T11:42:25.203Z,8608
2016-05-05T11:43:39.271Z,8620
2016-05-05T11:44:24.958Z,8668
2016-05-05T11:45:24.820Z,8756
2016-05-05T11:46:25.027Z,8828
2016-05-05T11:47:24.982Z,8788
2016-05-05T11:48:24.688Z,8756
2016-05-05T11:49:25.018Z,8776
2016-05-05T11:50:24.865Z,8812
2016-05-05T11:51:24.587Z,8828
2016-05-05T11:52:39.123Z,8844
2016-05-05T11:53:25.279Z,8784
2016-05-05T11:54:26.251Z,8672
2016-05-05T11:55:25.191Z,8628
2016-05-05T11:56:25.101Z,8672
2016-05-05T11:57:25.134Z,8728
2016-05-05T11:58:25.121Z,8704
2016-05-05T11:59:25.139Z,8772
2016-05-05T12:00:25.142Z,8808
2016-05-05T12:01:25.378Z,8804
2016-05-05T12:02:25.163Z,8724
2016-05-05T12:03:25.166Z,8708
2016-05-05T12:04:24.934Z,8676
2016-05-05T12:05:25.422Z,8668
2016-05-05T12:06:25.205Z,8720
2016-05-05T12:07:25.864Z,8700
2016-05-05T12:08:25.225Z,8776
2016-05-05T12:09:24.963Z,8696
2016-05-05T12:10:25.138Z,8680
2016-05-05T12:11:25.703Z,8712
2016-05-05T12:12:25.283Z,8728
2016-05-05T12:14:25.288Z,8700
2016-05-05T12:15:25.307Z,8684
2016-05-05T12:16:25.340Z,8736
2016-05-05T12:17:25.344Z,8736
2016-05-05T12:18:39.443Z,8728
2016-05-05T12:19:25.412Z,8716
2016-05-05T12:20:25.383Z,8644
2016-05-05T12:21:25.620Z,8596
2016-05-05T12:22:25.435Z,8568
2016-05-05T12:23:25.406Z,8556
2016-05-05T12:24:25.675Z,8480
2016-05-05T12:25:25.429Z,8444
2016-05-05T12:26:25.103Z,8416
2016-05-05T12:27:25.856Z,8432
2016-05-05T12:28:25.295Z,8472
2016-05-05T12:29:25.486Z,8544
2016-05-05T12:30:25.331Z,8608
2016-05-05T12:31:25.507Z,8652
2016-05-05T12:32:25.509Z,8680
2016-05-05T12:33:25.542Z,8692
2016-05-05T12:34:25.420Z,8728
2016-05-05T12:35:25.533Z,8720
2016-05-05T12:36:25.566Z,8728
2016-05-05T12:37:25.772Z,8740
2016-05-05T12:38:25.603Z,8712
2016-05-05T12:39:25.638Z,8656
2016-05-05T12:40:25.921Z,8612
2016-05-05T12:41:25.705Z,8592
2016-05-05T12:42:25.708Z,8608
2016-05-05T12:43:25.663Z,8636
2016-05-05T12:44:25.666Z,8620
2016-05-05T12:45:25.497Z,8568
2016-05-05T12:46:25.703Z,8496
2016-05-05T12:47:25.237Z,8436
2016-05-05T12:48:25.552Z,8404
2016-05-05T12:49:25.930Z,8456
2016-05-05T12:50:25.557Z,8544
2016-05-05T12:51:25.966Z,8616
2016-05-05T12:52:25.750Z,8648
2016-05-05T12:53:25.628Z,8680
2016-05-05T12:54:25.771Z,8664
2016-05-05T12:55:25.821Z,8648
2016-05-05T12:56:25.809Z,8656
2016-05-05T12:57:25.826Z,8720
2016-05-05T12:58:25.828Z,8760
2016-05-05T12:59:25.706Z,8788
2016-05-05T13:00:25.882Z,8816
2016-05-05T13:01:40.153Z,8860
2016-05-05T13:02:26.293Z,8908
2016-05-05T13:03:25.780Z,8948
2016-05-05T13:04:25.892Z,8944
2016-05-05T13:05:25.973Z,8940
2016-05-05T13:06:25.928Z,8896
2016-05-05T13:07:25.775Z,8896
2016-05-05T13:08:25.966Z,8908
2016-05-05T13:09:25.969Z,8940
2016-05-05T13:10:26.283Z,8924
2016-05-05T13:11:25.833Z,8864
2016-05-05T13:12:25.992Z,8820
2016-05-05T13:13:26.010Z,8848
2016-05-05T13:14:25.888Z,8876
2016-05-05T13:15:25.593Z,8904
2016-05-05T13:16:25.752Z,8972
2016-05-05T13:17:26.068Z,8960
2016-05-05T13:18:25.914Z,8932
2016-05-05T13:19:25.963Z,8880
2016-05-05T13:20:25.982Z,8844
2016-05-05T13:21:26.157Z,8832
2016-05-05T13:22:26.160Z,8820
2016-05-05T13:23:25.990Z,8796
2016-05-05T13:24:26.415Z,8768
2016-05-05T13:25:26.558Z,8744
2016-05-05T13:26:25.717Z,8728
2016-05-05T13:27:26.423Z,8736
2016-05-05T13:28:26.223Z,8756
2016-05-05T13:29:26.225Z,8732
2016-05-05T13:30:26.071Z,8664
2016-05-05T13:31:26.309Z,8680
2016-05-05T13:32:26.264Z,8720
2016-05-05T13:33:26.298Z,8756
2016-05-05T13:34:26.301Z,8712
2016-05-05T13:35:26.304Z,8660
2016-05-05T13:36:26.556Z,8652
2016-05-05T13:37:35.359Z,8652
2016-05-05T13:38:26.359Z,8620
2016-05-05T13:40:26.427Z,8540
2016-05-05T13:41:26.398Z,8544
2016-05-05T13:42:26.400Z,8556
2016-05-05T13:43:26.263Z,8556
2016-05-05T13:44:26.828Z,8572
2016-05-05T13:45:26.440Z,8580
2016-05-05T13:46:26.458Z,8580
2016-05-05T13:47:26.461Z,8568
2016-05-05T13:48:26.683Z,8580